sensor_id;sensor_type;location;lat;lon;timestamp;P1;durP1;ratioP1;P2;durP2;ratioP2
4595;SDS011;2310;49.978;8.742;2023-03-11T00:00:45;3.33;;;2.00;;
4595;SDS011;2310;49.978;8.742;2023-03-11T00:04:48;3.00;;;1.80;;
4595;SDS011;2310;49.978;8.742;2023-03-11T00:08:49;2.80;;;1.50;;
4595;SDS011;2310;49.978;8.742;2023-03-11T00:12:52;3.63;;;1.60;;
4595;SDS011;2310;49.978;8.742;2023-03-11T00:16:53;3.40;;;1.57;;
4595;SDS011;2310;49.978;8.742;2023-03-11T00:20:55;2.70;;;1.57;;
4595;SDS011;2310;49.978;8.742;2023-03-11T00:24:57;2.90;;;1.40;;
4595;SDS011;2310;49.978;8.742;2023-03-11T00:28:58;2.23;;;1.13;;
4595;SDS011;2310;49.978;8.742;2023-03-11T00:32:59;2.80;;;1.30;;
4595;SDS011;2310;49.978;8.742;2023-03-11T00:37:01;2.80;;;1.60;;
4595;SDS011;2310;49.978;8.742;2023-03-11T00:41:02;3.70;;;1.27;;
4595;SDS011;2310;49.978;8.742;2023-03-11T00:45:04;2.30;;;1.00;;
4595;SDS011;2310;49.978;8.742;2023-03-11T00:49:05;2.30;;;1.00;;
4595;SDS011;2310;49.978;8.742;2023-03-11T00:53:06;2.00;;;0.90;;
4595;SDS011;2310;49.978;8.742;2023-03-11T00:57:08;2.60;;;1.10;;
4595;SDS011;2310;49.978;8.742;2023-03-11T01:01:10;2.33;;;1.17;;
4595;SDS011;2310;49.978;8.742;2023-03-11T01:05:13;3.17;;;1.27;;
4595;SDS011;2310;49.978;8.742;2023-03-11T01:09:14;3.70;;;1.07;;
4595;SDS011;2310;49.978;8.742;2023-03-11T01:13:16;3.93;;;1.20;;
4595;SDS011;2310;49.978;8.742;2023-03-11T01:17:17;2.80;;;1.10;;
4595;SDS011;2310;49.978;8.742;2023-03-11T01:21:18;2.70;;;1.07;;
4595;SDS011;2310;49.978;8.742;2023-03-11T01:25:20;3.73;;;0.87;;
4595;SDS011;2310;49.978;8.742;2023-03-11T01:29:22;4.57;;;1.23;;
4595;SDS011;2310;49.978;8.742;2023-03-11T01:33:23;2.50;;;1.03;;
4595;SDS011;2310;49.978;8.742;2023-03-11T01:37:24;4.77;;;1.27;;
4595;SDS011;2310;49.978;8.742;2023-03-11T01:41:25;2.67;;;1.50;;
4595;SDS011;2310;49.978;8.742;2023-03-11T01:45:40;5.23;;;1.20;;
4595;SDS011;2310;49.978;8.742;2023-03-11T01:49:53;4.40;;;2.17;;
4595;SDS011;2310;49.978;8.742;2023-03-11T01:53:54;3.70;;;1.73;;
4595;SDS011;2310;49.978;8.742;2023-03-11T01:57:57;4.47;;;1.40;;
4595;SDS011;2310;49.978;8.742;2023-03-11T02:02:04;3.70;;;1.80;;
4595;SDS011;2310;49.978;8.742;2023-03-11T02:06:08;2.93;;;1.17;;
4595;SDS011;2310;49.978;8.742;2023-03-11T02:10:11;3.83;;;1.20;;
4595;SDS011;2310;49.978;8.742;2023-03-11T02:14:13;3.97;;;1.50;;
4595;SDS011;2310;49.978;8.742;2023-03-11T02:18:14;4.60;;;1.33;;
4595;SDS011;2310;49.978;8.742;2023-03-11T02:22:22;5.53;;;1.50;;
4595;SDS011;2310;49.978;8.742;2023-03-11T02:26:29;4.13;;;1.40;;
4595;SDS011;2310;49.978;8.742;2023-03-11T02:30:34;3.27;;;1.60;;
4595;SDS011;2310;49.978;8.742;2023-03-11T02:34:37;4.17;;;2.07;;
4595;SDS011;2310;49.978;8.742;2023-03-11T02:38:39;4.33;;;1.97;;
4595;SDS011;2310;49.978;8.742;2023-03-11T02:42:40;5.00;;;2.03;;
4595;SDS011;2310;49.978;8.742;2023-03-11T02:46:41;4.87;;;1.67;;
4595;SDS011;2310;49.978;8.742;2023-03-11T02:50:43;3.90;;;1.43;;
4595;SDS011;2310;49.978;8.742;2023-03-11T02:54:46;3.50;;;1.10;;
4595;SDS011;2310;49.978;8.742;2023-03-11T02:58:47;4.87;;;1.50;;
4595;SDS011;2310;49.978;8.742;2023-03-11T03:02:49;4.50;;;1.30;;
4595;SDS011;2310;49.978;8.742;2023-03-11T03:06:52;5.43;;;1.60;;
4595;SDS011;2310;49.978;8.742;2023-03-11T03:10:53;4.83;;;1.43;;
4595;SDS011;2310;49.978;8.742;2023-03-11T03:14:54;3.50;;;1.37;;
4595;SDS011;2310;49.978;8.742;2023-03-11T03:18:55;3.77;;;1.30;;
4595;SDS011;2310;49.978;8.742;2023-03-11T03:22:56;3.70;;;1.50;;
4595;SDS011;2310;49.978;8.742;2023-03-11T03:26:57;4.73;;;1.20;;
4595;SDS011;2310;49.978;8.742;2023-03-11T03:31:02;5.33;;;1.30;;
4595;SDS011;2310;49.978;8.742;2023-03-11T03:35:05;2.80;;;1.20;;
4595;SDS011;2310;49.978;8.742;2023-03-11T03:39:07;3.30;;;1.53;;
4595;SDS011;2310;49.978;8.742;2023-03-11T03:43:08;9.13;;;1.53;;
4595;SDS011;2310;49.978;8.742;2023-03-11T03:47:09;4.30;;;1.50;;
4595;SDS011;2310;49.978;8.742;2023-03-11T03:51:12;3.90;;;1.13;;
4595;SDS011;2310;49.978;8.742;2023-03-11T03:55:14;7.10;;;2.40;;
4595;SDS011;2310;49.978;8.742;2023-03-11T03:59:15;4.23;;;1.50;;
4595;SDS011;2310;49.978;8.742;2023-03-11T04:03:16;5.33;;;1.60;;
4595;SDS011;2310;49.978;8.742;2023-03-11T04:07:17;3.60;;;2.00;;
4595;SDS011;2310;49.978;8.742;2023-03-11T04:11:19;4.17;;;1.80;;
4595;SDS011;2310;49.978;8.742;2023-03-11T04:15:21;4.57;;;2.17;;
4595;SDS011;2310;49.978;8.742;2023-03-11T04:19:22;5.87;;;2.10;;
4595;SDS011;2310;49.978;8.742;2023-03-11T04:23:24;5.37;;;1.70;;
4595;SDS011;2310;49.978;8.742;2023-03-11T04:27:25;5.93;;;2.23;;
4595;SDS011;2310;49.978;8.742;2023-03-11T04:31:27;5.57;;;2.40;;
4595;SDS011;2310;49.978;8.742;2023-03-11T04:35:28;5.37;;;2.37;;
4595;SDS011;2310;49.978;8.742;2023-03-11T04:39:29;7.60;;;1.67;;
4595;SDS011;2310;49.978;8.742;2023-03-11T04:43:30;4.93;;;2.20;;
4595;SDS011;2310;49.978;8.742;2023-03-11T04:47:33;3.60;;;1.77;;
4595;SDS011;2310;49.978;8.742;2023-03-11T04:51:35;4.70;;;2.23;;
4595;SDS011;2310;49.978;8.742;2023-03-11T04:55:36;6.80;;;2.93;;
4595;SDS011;2310;49.978;8.742;2023-03-11T04:59:37;4.60;;;1.80;;
4595;SDS011;2310;49.978;8.742;2023-03-11T05:03:38;5.07;;;2.30;;
4595;SDS011;2310;49.978;8.742;2023-03-11T05:07:39;5.20;;;2.20;;
4595;SDS011;2310;49.978;8.742;2023-03-11T05:11:40;6.80;;;2.60;;
4595;SDS011;2310;49.978;8.742;2023-03-11T05:15:43;5.97;;;2.47;;
4595;SDS011;2310;49.978;8.742;2023-03-11T05:19:45;4.00;;;2.57;;
4595;SDS011;2310;49.978;8.742;2023-03-11T05:23:46;4.70;;;2.60;;
4595;SDS011;2310;49.978;8.742;2023-03-11T05:27:47;9.93;;;3.30;;
4595;SDS011;2310;49.978;8.742;2023-03-11T05:31:48;5.43;;;2.70;;
4595;SDS011;2310;49.978;8.742;2023-03-11T05:35:49;5.40;;;2.67;;
4595;SDS011;2310;49.978;8.742;2023-03-11T05:39:51;13.83;;;2.43;;
4595;SDS011;2310;49.978;8.742;2023-03-11T05:43:53;9.43;;;4.10;;
4595;SDS011;2310;49.978;8.742;2023-03-11T05:47:54;4.47;;;2.57;;
4595;SDS011;2310;49.978;8.742;2023-03-11T05:51:55;8.00;;;2.90;;
4595;SDS011;2310;49.978;8.742;2023-03-11T05:55:58;7.80;;;3.27;;
4595;SDS011;2310;49.978;8.742;2023-03-11T06:00:00;4.77;;;2.73;;
4595;SDS011;2310;49.978;8.742;2023-03-11T06:04:03;5.57;;;3.13;;
4595;SDS011;2310;49.978;8.742;2023-03-11T06:08:05;5.23;;;3.50;;
4595;SDS011;2310;49.978;8.742;2023-03-11T06:12:07;7.10;;;2.50;;
4595;SDS011;2310;49.978;8.742;2023-03-11T06:16:08;5.33;;;2.73;;
4595;SDS011;2310;49.978;8.742;2023-03-11T06:20:10;7.90;;;3.37;;
4595;SDS011;2310;49.978;8.742;2023-03-11T06:24:12;6.00;;;2.60;;
4595;SDS011;2310;49.978;8.742;2023-03-11T06:28:13;5.77;;;3.23;;
4595;SDS011;2310;49.978;8.742;2023-03-11T06:32:14;9.47;;;3.90;;
4595;SDS011;2310;49.978;8.742;2023-03-11T06:36:16;6.20;;;2.40;;
4595;SDS011;2310;49.978;8.742;2023-03-11T06:40:18;6.73;;;2.87;;
4595;SDS011;2310;49.978;8.742;2023-03-11T06:44:20;6.80;;;2.90;;
4595;SDS011;2310;49.978;8.742;2023-03-11T06:48:21;8.60;;;3.00;;
4595;SDS011;2310;49.978;8.742;2023-03-11T06:52:22;7.07;;;3.70;;
4595;SDS011;2310;49.978;8.742;2023-03-11T06:56:23;6.67;;;2.83;;
4595;SDS011;2310;49.978;8.742;2023-03-11T07:00:24;7.70;;;3.73;;
4595;SDS011;2310;49.978;8.742;2023-03-11T07:04:26;6.10;;;2.70;;
4595;SDS011;2310;49.978;8.742;2023-03-11T07:08:27;6.00;;;3.80;;
4595;SDS011;2310;49.978;8.742;2023-03-11T07:12:29;10.77;;;4.77;;
4595;SDS011;2310;49.978;8.742;2023-03-11T07:16:30;11.03;;;5.57;;
4595;SDS011;2310;49.978;8.742;2023-03-11T07:20:31;13.47;;;5.33;;
4595;SDS011;2310;49.978;8.742;2023-03-11T07:24:33;12.13;;;5.60;;
4595;SDS011;2310;49.978;8.742;2023-03-11T07:28:34;6.87;;;4.70;;
4595;SDS011;2310;49.978;8.742;2023-03-11T07:32:35;6.43;;;3.93;;
4595;SDS011;2310;49.978;8.742;2023-03-11T07:36:38;6.03;;;3.07;;
4595;SDS011;2310;49.978;8.742;2023-03-11T07:40:40;5.97;;;3.17;;
4595;SDS011;2310;49.978;8.742;2023-03-11T07:44:41;5.83;;;3.30;;
4595;SDS011;2310;49.978;8.742;2023-03-11T07:48:43;5.57;;;2.60;;
4595;SDS011;2310;49.978;8.742;2023-03-11T07:52:45;5.90;;;3.10;;
4595;SDS011;2310;49.978;8.742;2023-03-11T07:56:46;9.83;;;3.30;;
4595;SDS011;2310;49.978;8.742;2023-03-11T08:00:47;10.77;;;4.47;;
4595;SDS011;2310;49.978;8.742;2023-03-11T08:04:49;7.33;;;3.43;;
4595;SDS011;2310;49.978;8.742;2023-03-11T08:08:50;9.37;;;2.87;;
4595;SDS011;2310;49.978;8.742;2023-03-11T08:12:51;9.33;;;3.10;;
4595;SDS011;2310;49.978;8.742;2023-03-11T08:16:52;6.40;;;2.60;;
4595;SDS011;2310;49.978;8.742;2023-03-11T08:20:53;8.90;;;3.83;;
4595;SDS011;2310;49.978;8.742;2023-03-11T08:24:55;7.60;;;2.97;;
4595;SDS011;2310;49.978;8.742;2023-03-11T08:28:58;5.90;;;3.00;;
4595;SDS011;2310;49.978;8.742;2023-03-11T08:32:59;6.27;;;2.90;;
4595;SDS011;2310;49.978;8.742;2023-03-11T08:37:01;11.37;;;4.20;;
4595;SDS011;2310;49.978;8.742;2023-03-11T08:41:02;7.27;;;4.13;;
4595;SDS011;2310;49.978;8.742;2023-03-11T08:45:04;6.27;;;3.07;;
4595;SDS011;2310;49.978;8.742;2023-03-11T08:49:06;6.30;;;2.80;;
4595;SDS011;2310;49.978;8.742;2023-03-11T08:53:07;9.93;;;2.63;;
4595;SDS011;2310;49.978;8.742;2023-03-11T08:57:08;5.60;;;4.10;;
4595;SDS011;2310;49.978;8.742;2023-03-11T09:01:10;5.07;;;2.40;;
4595;SDS011;2310;49.978;8.742;2023-03-11T09:05:13;5.97;;;3.00;;
4595;SDS011;2310;49.978;8.742;2023-03-11T09:09:14;7.73;;;3.27;;
4595;SDS011;2310;49.978;8.742;2023-03-11T09:13:16;6.70;;;2.43;;
4595;SDS011;2310;49.978;8.742;2023-03-11T09:17:17;5.57;;;2.00;;
4595;SDS011;2310;49.978;8.742;2023-03-11T09:21:19;5.00;;;2.00;;
4595;SDS011;2310;49.978;8.742;2023-03-11T09:25:20;6.03;;;4.03;;
4595;SDS011;2310;49.978;8.742;2023-03-11T09:29:22;7.90;;;6.50;;
4595;SDS011;2310;49.978;8.742;2023-03-11T09:33:23;3.73;;;2.20;;
4595;SDS011;2310;49.978;8.742;2023-03-11T09:37:24;4.80;;;2.33;;
4595;SDS011;2310;49.978;8.742;2023-03-11T09:41:32;9.50;;;3.17;;
4595;SDS011;2310;49.978;8.742;2023-03-11T09:45:41;4.80;;;2.30;;
4595;SDS011;2310;49.978;8.742;2023-03-11T09:50:02;13.73;;;2.93;;
4595;SDS011;2310;49.978;8.742;2023-03-11T09:54:10;5.60;;;2.40;;
4595;SDS011;2310;49.978;8.742;2023-03-11T09:58:17;3.67;;;1.70;;
4595;SDS011;2310;49.978;8.742;2023-03-11T10:02:37;4.27;;;2.27;;
4595;SDS011;2310;49.978;8.742;2023-03-11T10:06:40;5.53;;;2.30;;
4595;SDS011;2310;49.978;8.742;2023-03-11T10:10:46;7.67;;;2.80;;
4595;SDS011;2310;49.978;8.742;2023-03-11T10:19:19;3.93;;;2.27;;
4595;SDS011;2310;49.978;8.742;2023-03-11T10:27:48;4.57;;;3.27;;
4595;SDS011;2310;49.978;8.742;2023-03-11T10:36:16;6.93;;;2.33;;
4595;SDS011;2310;49.978;8.742;2023-03-11T10:40:34;4.70;;;2.20;;
4595;SDS011;2310;49.978;8.742;2023-03-11T10:44:37;5.67;;;2.60;;
4595;SDS011;2310;49.978;8.742;2023-03-11T10:48:40;3.70;;;2.20;;
4595;SDS011;2310;49.978;8.742;2023-03-11T10:52:42;4.37;;;1.97;;
4595;SDS011;2310;49.978;8.742;2023-03-11T10:56:47;6.07;;;2.77;;
4595;SDS011;2310;49.978;8.742;2023-03-11T11:09:22;3.20;;;2.00;;
4595;SDS011;2310;49.978;8.742;2023-03-11T11:13:31;4.53;;;1.90;;
4595;SDS011;2310;49.978;8.742;2023-03-11T11:17:34;8.07;;;2.87;;
4595;SDS011;2310;49.978;8.742;2023-03-11T11:21:39;3.77;;;2.20;;
4595;SDS011;2310;49.978;8.742;2023-03-11T11:25:43;3.83;;;3.20;;
4595;SDS011;2310;49.978;8.742;2023-03-11T11:34:23;3.37;;;1.90;;
4595;SDS011;2310;49.978;8.742;2023-03-11T11:38:31;4.43;;;2.17;;
4595;SDS011;2310;49.978;8.742;2023-03-11T11:42:33;6.70;;;2.80;;
4595;SDS011;2310;49.978;8.742;2023-03-11T11:46:39;5.77;;;2.43;;
4595;SDS011;2310;49.978;8.742;2023-03-11T11:50:43;3.60;;;1.83;;
4595;SDS011;2310;49.978;8.742;2023-03-11T11:54:56;5.07;;;2.33;;
4595;SDS011;2310;49.978;8.742;2023-03-11T11:59:01;9.40;;;2.57;;
4595;SDS011;2310;49.978;8.742;2023-03-11T12:11:46;4.50;;;1.83;;
4595;SDS011;2310;49.978;8.742;2023-03-11T12:16:02;4.70;;;2.23;;
4595;SDS011;2310;49.978;8.742;2023-03-11T12:20:25;4.00;;;2.03;;
4595;SDS011;2310;49.978;8.742;2023-03-11T12:29:24;4.00;;;2.07;;
4595;SDS011;2310;49.978;8.742;2023-03-11T12:33:30;5.73;;;1.63;;
4595;SDS011;2310;49.978;8.742;2023-03-11T12:37:33;4.40;;;1.87;;
4595;SDS011;2310;49.978;8.742;2023-03-11T12:41:34;6.30;;;2.30;;
4595;SDS011;2310;49.978;8.742;2023-03-11T12:45:46;5.00;;;1.97;;
4595;SDS011;2310;49.978;8.742;2023-03-11T12:49:53;3.43;;;2.00;;
4595;SDS011;2310;49.978;8.742;2023-03-11T12:53:54;3.60;;;1.73;;
4595;SDS011;2310;49.978;8.742;2023-03-11T12:57:59;5.40;;;2.17;;
4595;SDS011;2310;49.978;8.742;2023-03-11T13:06:41;4.13;;;1.77;;
4595;SDS011;2310;49.978;8.742;2023-03-11T13:10:46;5.67;;;2.77;;
4595;SDS011;2310;49.978;8.742;2023-03-11T13:15:12;5.07;;;1.93;;
4595;SDS011;2310;49.978;8.742;2023-03-11T13:19:32;7.10;;;2.17;;
4595;SDS011;2310;49.978;8.742;2023-03-11T13:23:35;3.57;;;1.60;;
4595;SDS011;2310;49.978;8.742;2023-03-11T13:27:38;4.37;;;1.50;;
4595;SDS011;2310;49.978;8.742;2023-03-11T13:36:07;6.50;;;1.90;;
4595;SDS011;2310;49.978;8.742;2023-03-11T13:44:36;3.60;;;1.60;;
4595;SDS011;2310;49.978;8.742;2023-03-11T13:48:41;3.67;;;1.63;;
4595;SDS011;2310;49.978;8.742;2023-03-11T13:52:46;5.00;;;2.37;;
4595;SDS011;2310;49.978;8.742;2023-03-11T13:57:00;4.33;;;2.00;;
4595;SDS011;2310;49.978;8.742;2023-03-11T14:01:00;3.73;;;1.50;;
4595;SDS011;2310;49.978;8.742;2023-03-11T14:05:03;4.37;;;1.83;;
4595;SDS011;2310;49.978;8.742;2023-03-11T14:09:14;3.93;;;1.77;;
4595;SDS011;2310;49.978;8.742;2023-03-11T14:13:15;4.60;;;1.60;;
4595;SDS011;2310;49.978;8.742;2023-03-11T14:17:18;3.83;;;1.83;;
4595;SDS011;2310;49.978;8.742;2023-03-11T14:21:20;7.90;;;1.80;;
4595;SDS011;2310;49.978;8.742;2023-03-11T14:25:27;3.30;;;1.60;;
4595;SDS011;2310;49.978;8.742;2023-03-11T14:29:29;3.50;;;1.90;;
4595;SDS011;2310;49.978;8.742;2023-03-11T14:33:31;4.23;;;2.00;;
4595;SDS011;2310;49.978;8.742;2023-03-11T14:37:33;5.50;;;2.07;;
4595;SDS011;2310;49.978;8.742;2023-03-11T14:41:36;8.30;;;4.40;;
4595;SDS011;2310;49.978;8.742;2023-03-11T14:45:37;7.33;;;2.30;;
4595;SDS011;2310;49.978;8.742;2023-03-11T14:49:41;4.63;;;2.07;;
4595;SDS011;2310;49.978;8.742;2023-03-11T14:53:44;7.30;;;2.23;;
4595;SDS011;2310;49.978;8.742;2023-03-11T14:57:52;4.90;;;1.80;;
4595;SDS011;2310;49.978;8.742;2023-03-11T15:02:18;3.97;;;1.67;;
4595;SDS011;2310;49.978;8.742;2023-03-11T15:06:14;4.73;;;2.87;;
4595;SDS011;2310;49.978;8.742;2023-03-11T15:10:17;3.63;;;1.50;;
4595;SDS011;2310;49.978;8.742;2023-03-11T15:14:20;8.27;;;5.87;;
4595;SDS011;2310;49.978;8.742;2023-03-11T15:18:28;5.00;;;3.10;;
4595;SDS011;2310;49.978;8.742;2023-03-11T15:22:39;6.70;;;3.13;;
4595;SDS011;2310;49.978;8.742;2023-03-11T15:26:40;9.03;;;4.53;;
4595;SDS011;2310;49.978;8.742;2023-03-11T15:30:45;5.43;;;3.20;;
4595;SDS011;2310;49.978;8.742;2023-03-11T15:34:57;5.73;;;2.17;;
4595;SDS011;2310;49.978;8.742;2023-03-11T15:39:20;3.60;;;1.50;;
4595;SDS011;2310;49.978;8.742;2023-03-11T15:43:31;7.47;;;4.27;;
4595;SDS011;2310;49.978;8.742;2023-03-11T15:47:33;3.90;;;2.37;;
4595;SDS011;2310;49.978;8.742;2023-03-11T15:51:35;6.03;;;2.20;;
4595;SDS011;2310;49.978;8.742;2023-03-11T15:55:37;5.00;;;2.37;;
4595;SDS011;2310;49.978;8.742;2023-03-11T15:59:39;4.10;;;1.70;;
4595;SDS011;2310;49.978;8.742;2023-03-11T16:03:42;5.97;;;1.80;;
4595;SDS011;2310;49.978;8.742;2023-03-11T16:07:44;4.83;;;2.43;;
4595;SDS011;2310;49.978;8.742;2023-03-11T16:11:46;6.20;;;2.63;;
4595;SDS011;2310;49.978;8.742;2023-03-11T16:15:47;8.83;;;5.00;;
4595;SDS011;2310;49.978;8.742;2023-03-11T16:19:49;7.40;;;3.80;;
4595;SDS011;2310;49.978;8.742;2023-03-11T16:23:50;7.23;;;2.93;;
4595;SDS011;2310;49.978;8.742;2023-03-11T16:27:53;4.67;;;1.87;;
4595;SDS011;2310;49.978;8.742;2023-03-11T16:31:56;5.03;;;1.90;;
4595;SDS011;2310;49.978;8.742;2023-03-11T16:35:57;5.53;;;2.07;;
4595;SDS011;2310;49.978;8.742;2023-03-11T16:39:58;3.80;;;1.50;;
4595;SDS011;2310;49.978;8.742;2023-03-11T16:44:00;4.20;;;1.97;;
4595;SDS011;2310;49.978;8.742;2023-03-11T16:48:01;4.37;;;2.20;;
4595;SDS011;2310;49.978;8.742;2023-03-11T16:52:03;3.40;;;1.30;;
4595;SDS011;2310;49.978;8.742;2023-03-11T16:56:05;3.13;;;1.83;;
4595;SDS011;2310;49.978;8.742;2023-03-11T17:00:07;4.67;;;1.90;;
4595;SDS011;2310;49.978;8.742;2023-03-11T17:04:09;5.57;;;1.87;;
4595;SDS011;2310;49.978;8.742;2023-03-11T17:08:10;3.70;;;1.50;;
4595;SDS011;2310;49.978;8.742;2023-03-11T17:12:12;7.30;;;2.00;;
4595;SDS011;2310;49.978;8.742;2023-03-11T17:16:15;3.40;;;1.63;;
4595;SDS011;2310;49.978;8.742;2023-03-11T17:20:17;3.10;;;1.60;;
4595;SDS011;2310;49.978;8.742;2023-03-11T17:24:20;4.50;;;1.90;;
4595;SDS011;2310;49.978;8.742;2023-03-11T17:28:21;4.30;;;1.70;;
4595;SDS011;2310;49.978;8.742;2023-03-11T17:32:22;4.90;;;1.30;;
4595;SDS011;2310;49.978;8.742;2023-03-11T17:36:24;5.57;;;2.20;;
4595;SDS011;2310;49.978;8.742;2023-03-11T17:40:25;5.40;;;2.53;;
4595;SDS011;2310;49.978;8.742;2023-03-11T17:44:28;5.80;;;1.80;;
4595;SDS011;2310;49.978;8.742;2023-03-11T17:48:31;4.30;;;2.03;;
4595;SDS011;2310;49.978;8.742;2023-03-11T17:52:33;3.70;;;2.03;;
4595;SDS011;2310;49.978;8.742;2023-03-11T17:56:34;9.37;;;6.30;;
4595;SDS011;2310;49.978;8.742;2023-03-11T18:00:35;2.80;;;1.70;;
4595;SDS011;2310;49.978;8.742;2023-03-11T18:04:37;5.50;;;1.50;;
4595;SDS011;2310;49.978;8.742;2023-03-11T18:08:39;3.50;;;1.63;;
4595;SDS011;2310;49.978;8.742;2023-03-11T18:12:44;3.60;;;1.83;;
4595;SDS011;2310;49.978;8.742;2023-03-11T18:16:46;4.53;;;2.20;;
4595;SDS011;2310;49.978;8.742;2023-03-11T18:20:47;5.37;;;1.87;;
4595;SDS011;2310;49.978;8.742;2023-03-11T18:24:48;4.20;;;1.80;;
4595;SDS011;2310;49.978;8.742;2023-03-11T18:28:54;3.60;;;1.40;;
4595;SDS011;2310;49.978;8.742;2023-03-11T18:32:56;5.57;;;2.10;;
4595;SDS011;2310;49.978;8.742;2023-03-11T18:36:57;3.50;;;1.60;;
4595;SDS011;2310;49.978;8.742;2023-03-11T18:40:58;2.87;;;1.10;;
4595;SDS011;2310;49.978;8.742;2023-03-11T18:44:59;3.53;;;1.87;;
4595;SDS011;2310;49.978;8.742;2023-03-11T18:49:01;6.27;;;1.87;;
4595;SDS011;2310;49.978;8.742;2023-03-11T18:53:03;17.60;;;13.67;;
4595;SDS011;2310;49.978;8.742;2023-03-11T18:57:04;4.83;;;2.90;;
4595;SDS011;2310;49.978;8.742;2023-03-11T19:01:06;5.33;;;2.13;;
4595;SDS011;2310;49.978;8.742;2023-03-11T19:05:09;5.50;;;3.40;;
4595;SDS011;2310;49.978;8.742;2023-03-11T19:09:11;9.00;;;8.10;;
4595;SDS011;2310;49.978;8.742;2023-03-11T19:13:12;8.50;;;6.50;;
4595;SDS011;2310;49.978;8.742;2023-03-11T19:17:13;12.77;;;11.37;;
4595;SDS011;2310;49.978;8.742;2023-03-11T19:21:17;21.63;;;12.90;;
4595;SDS011;2310;49.978;8.742;2023-03-11T19:25:18;20.30;;;14.10;;
4595;SDS011;2310;49.978;8.742;2023-03-11T19:29:20;15.57;;;11.73;;
4595;SDS011;2310;49.978;8.742;2023-03-11T19:33:24;24.10;;;14.97;;
4595;SDS011;2310;49.978;8.742;2023-03-11T19:37:26;13.27;;;7.70;;
4595;SDS011;2310;49.978;8.742;2023-03-11T19:41:27;8.40;;;5.73;;
4595;SDS011;2310;49.978;8.742;2023-03-11T19:45:28;9.00;;;5.70;;
4595;SDS011;2310;49.978;8.742;2023-03-11T19:49:30;7.57;;;5.73;;
4595;SDS011;2310;49.978;8.742;2023-03-11T19:53:32;7.73;;;5.00;;
4595;SDS011;2310;49.978;8.742;2023-03-11T19:57:35;10.07;;;3.50;;
4595;SDS011;2310;49.978;8.742;2023-03-11T20:01:36;4.30;;;2.73;;
4595;SDS011;2310;49.978;8.742;2023-03-11T20:05:38;5.33;;;3.03;;
4595;SDS011;2310;49.978;8.742;2023-03-11T20:09:42;4.90;;;2.63;;
4595;SDS011;2310;49.978;8.742;2023-03-11T20:13:43;5.13;;;2.27;;
4595;SDS011;2310;49.978;8.742;2023-03-11T20:17:44;6.33;;;3.10;;
4595;SDS011;2310;49.978;8.742;2023-03-11T20:21:46;4.63;;;1.97;;
4595;SDS011;2310;49.978;8.742;2023-03-11T20:25:47;5.47;;;1.90;;
4595;SDS011;2310;49.978;8.742;2023-03-11T20:29:48;4.00;;;2.37;;
4595;SDS011;2310;49.978;8.742;2023-03-11T20:33:50;5.03;;;2.00;;
4595;SDS011;2310;49.978;8.742;2023-03-11T20:37:52;4.63;;;2.10;;
4595;SDS011;2310;49.978;8.742;2023-03-11T20:41:53;5.60;;;2.73;;
4595;SDS011;2310;49.978;8.742;2023-03-11T20:45:56;7.90;;;3.13;;
4595;SDS011;2310;49.978;8.742;2023-03-11T20:49:57;7.73;;;3.03;;
4595;SDS011;2310;49.978;8.742;2023-03-11T20:53:58;5.90;;;2.73;;
4595;SDS011;2310;49.978;8.742;2023-03-11T20:58:00;6.87;;;3.77;;
4595;SDS011;2310;49.978;8.742;2023-03-11T21:02:01;6.23;;;2.70;;
4595;SDS011;2310;49.978;8.742;2023-03-11T21:06:03;4.60;;;2.60;;
4595;SDS011;2310;49.978;8.742;2023-03-11T21:10:05;4.40;;;2.53;;
4595;SDS011;2310;49.978;8.742;2023-03-11T21:14:09;4.00;;;2.07;;
4595;SDS011;2310;49.978;8.742;2023-03-11T21:18:13;3.90;;;1.83;;
4595;SDS011;2310;49.978;8.742;2023-03-11T21:22:14;3.40;;;1.97;;
4595;SDS011;2310;49.978;8.742;2023-03-11T21:26:15;3.30;;;1.90;;
4595;SDS011;2310;49.978;8.742;2023-03-11T21:30:17;5.57;;;2.40;;
4595;SDS011;2310;49.978;8.742;2023-03-11T21:34:18;3.00;;;1.80;;
4595;SDS011;2310;49.978;8.742;2023-03-11T21:38:20;5.73;;;2.47;;
4595;SDS011;2310;49.978;8.742;2023-03-11T21:42:23;7.30;;;2.83;;
4595;SDS011;2310;49.978;8.742;2023-03-11T21:46:28;5.73;;;3.23;;
4595;SDS011;2310;49.978;8.742;2023-03-11T21:50:31;5.33;;;2.60;;
4595;SDS011;2310;49.978;8.742;2023-03-11T21:54:35;3.70;;;2.50;;
4595;SDS011;2310;49.978;8.742;2023-03-11T21:58:36;5.73;;;2.70;;
4595;SDS011;2310;49.978;8.742;2023-03-11T22:02:37;4.20;;;2.20;;
4595;SDS011;2310;49.978;8.742;2023-03-11T22:06:38;5.30;;;3.20;;
4595;SDS011;2310;49.978;8.742;2023-03-11T22:10:40;5.30;;;3.30;;
4595;SDS011;2310;49.978;8.742;2023-03-11T22:14:41;7.20;;;3.90;;
4595;SDS011;2310;49.978;8.742;2023-03-11T22:18:42;7.03;;;4.07;;
4595;SDS011;2310;49.978;8.742;2023-03-11T22:22:44;6.03;;;3.60;;
4595;SDS011;2310;49.978;8.742;2023-03-11T22:26:46;7.40;;;3.50;;
4595;SDS011;2310;49.978;8.742;2023-03-11T22:30:47;7.70;;;3.23;;
4595;SDS011;2310;49.978;8.742;2023-03-11T22:34:48;7.10;;;3.57;;
4595;SDS011;2310;49.978;8.742;2023-03-11T22:38:49;6.13;;;3.83;;
4595;SDS011;2310;49.978;8.742;2023-03-11T22:42:51;6.93;;;3.80;;
4595;SDS011;2310;49.978;8.742;2023-03-11T22:46:52;5.93;;;3.37;;
4595;SDS011;2310;49.978;8.742;2023-03-11T22:50:53;5.63;;;4.50;;
4595;SDS011;2310;49.978;8.742;2023-03-11T22:54:54;7.03;;;4.60;;
4595;SDS011;2310;49.978;8.742;2023-03-11T22:58:55;7.60;;;4.33;;
4595;SDS011;2310;49.978;8.742;2023-03-11T23:02:57;6.03;;;4.27;;
4595;SDS011;2310;49.978;8.742;2023-03-11T23:06:58;7.07;;;6.33;;
4595;SDS011;2310;49.978;8.742;2023-03-11T23:11:00;10.17;;;3.50;;
4595;SDS011;2310;49.978;8.742;2023-03-11T23:15:10;5.50;;;3.40;;
4595;SDS011;2310;49.978;8.742;2023-03-11T23:19:13;5.50;;;2.97;;
4595;SDS011;2310;49.978;8.742;2023-03-11T23:23:14;6.33;;;3.97;;
4595;SDS011;2310;49.978;8.742;2023-03-11T23:27:16;5.50;;;3.77;;
4595;SDS011;2310;49.978;8.742;2023-03-11T23:31:17;4.47;;;3.13;;
4595;SDS011;2310;49.978;8.742;2023-03-11T23:35:19;5.73;;;4.00;;
4595;SDS011;2310;49.978;8.742;2023-03-11T23:39:21;6.17;;;4.03;;
4595;SDS011;2310;49.978;8.742;2023-03-11T23:43:22;5.57;;;3.40;;
4595;SDS011;2310;49.978;8.742;2023-03-11T23:47:25;5.90;;;4.20;;
4595;SDS011;2310;49.978;8.742;2023-03-11T23:51:26;5.37;;;4.17;;
4595;SDS011;2310;49.978;8.742;2023-03-11T23:55:27;7.63;;;3.67;;
4595;SDS011;2310;49.978;8.742;2023-03-11T23:59:29;5.10;;;3.33;;
